createdAt,value
2022-08-04T00:00:01.056Z,2.53
2022-08-04T00:02:51.892Z,2.70
2022-08-04T00:05:37.833Z,2.15
2022-08-04T00:08:31.241Z,2.65
2022-08-04T00:11:01.043Z,2.20
2022-08-04T00:13:32.655Z,2.65
2022-08-04T00:16:05.269Z,2.33
2022-08-04T00:18:39.738Z,2.50
2022-08-04T00:21:12.642Z,3.03
2022-08-04T00:24:11.761Z,2.33
2022-08-04T00:26:33.988Z,2.45
2022-08-04T00:29:02.048Z,2.30
2022-08-04T00:31:54.186Z,2.40
2022-08-04T00:34:18.915Z,2.53
2022-08-04T00:36:46.646Z,2.83
2022-08-04T00:39:16.223Z,2.40
2022-08-04T00:41:58.793Z,2.63
2022-08-04T00:44:29.330Z,2.85
2022-08-04T00:47:50.086Z,2.20
2022-08-04T00:50:38.331Z,2.80
2022-08-04T00:53:24.489Z,2.63
2022-08-04T00:56:10.533Z,2.92
2022-08-04T00:58:50.157Z,2.20
2022-08-04T01:01:55.293Z,2.22
2022-08-04T01:04:50.425Z,2.28
2022-08-04T01:07:48.458Z,2.60
2022-08-04T01:10:30.868Z,3.13
2022-08-04T01:13:32.019Z,2.97
2022-08-04T01:16:11.431Z,3.20
2022-08-04T01:18:54.209Z,2.15
2022-08-04T01:21:30.538Z,2.22
2022-08-04T01:26:53.824Z,2.85
2022-08-04T01:29:32.991Z,1.90
2022-08-04T01:32:26.413Z,2.50
2022-08-04T01:35:02.541Z,1.77
2022-08-04T01:37:48.494Z,2.25
2022-08-04T01:40:17.033Z,2.13
2022-08-04T01:42:47.976Z,2.55
2022-08-04T01:45:15.963Z,2.85
2022-08-04T01:47:50.494Z,2.92
2022-08-04T01:50:18.341Z,2.97
2022-08-04T01:52:50.492Z,2.88
2022-08-04T01:55:19.176Z,2.58
2022-08-04T01:57:48.639Z,2.72
2022-08-04T02:00:26.957Z,2.65
2022-08-04T02:02:56.266Z,2.35
2022-08-04T02:05:26.399Z,2.58
2022-08-04T02:08:40.602Z,2.33
2022-08-04T02:11:21.336Z,2.63
2022-08-04T02:13:57.430Z,3.45
2022-08-04T02:16:56.687Z,2.53
2022-08-04T02:19:35.437Z,2.50
2022-08-04T02:22:18.542Z,2.38
2022-08-04T02:25:10.402Z,2.35
2022-08-04T02:28:22.075Z,2.38
2022-08-04T02:31:15.870Z,3.17
2022-08-04T02:33:50.149Z,3.83
2022-08-04T02:36:24.078Z,4.40
2022-08-04T02:38:58.015Z,4.00
2022-08-04T02:41:27.287Z,4.00
2022-08-04T02:44:10.275Z,3.83
2022-08-04T02:46:38.671Z,3.00
2022-08-04T02:49:09.600Z,2.55
2022-08-04T02:51:49.116Z,3.03
2022-08-04T02:54:28.306Z,3.25
2022-08-04T02:57:01.945Z,4.07
2022-08-04T02:59:38.705Z,3.20
2022-08-04T03:02:06.377Z,3.05
2022-08-04T03:05:00.634Z,4.57
2022-08-04T03:08:04.997Z,3.85
2022-08-04T03:10:32.366Z,3.90
2022-08-04T03:13:38.176Z,4.15
2022-08-04T03:16:50.555Z,4.03
2022-08-04T03:19:36.890Z,2.78
2022-08-04T03:22:59.829Z,3.05
2022-08-04T03:25:57.557Z,2.25
2022-08-04T03:28:50.304Z,2.67
2022-08-04T03:31:39.311Z,2.28
2022-08-04T03:34:25.395Z,2.67
2022-08-04T03:37:04.139Z,2.70
2022-08-04T03:39:46.998Z,2.65
2022-08-04T03:42:34.491Z,3.00
2022-08-04T03:45:29.103Z,3.03
2022-08-04T03:48:34.310Z,2.75
2022-08-04T03:51:59.123Z,2.42
2022-08-04T03:54:59.495Z,2.28
2022-08-04T03:57:47.571Z,2.97
2022-08-04T04:00:20.783Z,2.20
2022-08-04T04:03:26.751Z,3.38
2022-08-04T04:06:19.627Z,2.83
2022-08-04T04:09:45.557Z,2.55
2022-08-04T04:12:49.636Z,2.53
2022-08-04T04:16:01.594Z,2.42
2022-08-04T04:18:42.679Z,2.22
2022-08-04T04:21:46.984Z,2.15
2022-08-04T04:24:20.147Z,2.70
2022-08-04T04:26:56.708Z,2.85
2022-08-04T04:29:43.981Z,3.20
2022-08-04T04:32:32.903Z,2.30
2022-08-04T04:35:23.957Z,2.38
2022-08-04T04:37:51.384Z,3.03
2022-08-04T04:40:48.745Z,2.35
2022-08-04T04:46:41.510Z,2.03
2022-08-04T04:49:36.567Z,2.15
2022-08-04T04:52:13.507Z,3.15
2022-08-04T04:55:18.937Z,4.00
2022-08-04T04:57:53.144Z,4.28
2022-08-04T05:00:34.892Z,3.58
2022-08-04T05:03:11.499Z,3.05
2022-08-04T05:05:49.942Z,3.08
2022-08-04T05:08:45.424Z,2.92
2022-08-04T05:11:44.656Z,3.72
2022-08-04T05:14:36.880Z,2.92
2022-08-04T05:17:47.506Z,4.20
2022-08-04T05:20:25.897Z,5.37
2022-08-04T05:22:58.259Z,6.40
2022-08-04T05:25:55.313Z,6.13
2022-08-04T05:28:34.227Z,4.45
2022-08-04T05:31:06.425Z,5.72
2022-08-04T05:33:42.702Z,5.35
2022-08-04T05:36:32.742Z,7.32
2022-08-04T05:39:07.715Z,7.80
2022-08-04T05:41:45.574Z,7.32
2022-08-04T05:44:16.028Z,5.72
2022-08-04T05:46:54.553Z,6.53
2022-08-04T05:49:27.568Z,6.80
2022-08-04T05:52:01.922Z,7.75
2022-08-04T05:54:34.283Z,8.80
2022-08-04T05:57:04.811Z,8.88
2022-08-04T05:59:34.341Z,8.55
2022-08-04T06:02:03.790Z,7.90
2022-08-04T06:04:42.429Z,5.72
2022-08-04T06:07:13.026Z,4.82
2022-08-04T06:09:41.414Z,5.10
2022-08-04T06:12:19.396Z,4.85
2022-08-04T06:14:50.670Z,4.80
2022-08-04T06:18:58.529Z,4.55
2022-08-04T06:20:23.037Z,4.40
2022-08-04T06:22:54.613Z,4.40
2022-08-04T06:25:31.320Z,5.03
2022-08-04T06:27:59.953Z,3.85
2022-08-04T06:30:30.500Z,3.63
2022-08-04T06:33:03.394Z,3.47
2022-08-04T06:35:33.417Z,2.53
2022-08-04T06:38:02.096Z,2.42
2022-08-04T06:40:33.780Z,2.83
2022-08-04T06:43:03.708Z,2.60
2022-08-04T06:45:34.703Z,2.47
2022-08-04T06:48:04.432Z,2.90
2022-08-04T06:51:30.733Z,2.72
2022-08-04T06:53:21.410Z,2.47
2022-08-04T06:55:50.402Z,2.67
2022-08-04T06:58:20.933Z,2.45
2022-08-04T07:00:49.576Z,2.53
2022-08-04T07:03:18.769Z,2.05
2022-08-04T07:05:51.280Z,2.33
2022-08-04T07:08:19.533Z,2.15
2022-08-04T07:10:47.346Z,2.40
2022-08-04T07:13:15.766Z,3.17
2022-08-04T07:15:45.998Z,2.45
2022-08-04T07:18:13.485Z,3.10
2022-08-04T07:20:43.173Z,3.28
2022-08-04T07:23:13.803Z,2.30
2022-08-04T07:26:00.052Z,2.33
2022-08-04T07:28:30.829Z,2.15
2022-08-04T07:30:58.662Z,3.10
2022-08-04T07:33:26.282Z,2.63
2022-08-04T07:36:10.300Z,3.15
2022-08-04T07:38:46.371Z,2.97
2022-08-04T07:41:40.696Z,2.80
2022-08-04T07:44:13.392Z,2.90
2022-08-04T07:46:41.387Z,2.38
2022-08-04T07:49:10.102Z,2.70
2022-08-04T07:51:38.780Z,3.38
2022-08-04T07:54:09.419Z,2.50
2022-08-04T07:56:39.459Z,2.80
2022-08-04T07:59:07.431Z,3.45
2022-08-04T08:01:40.536Z,3.50
2022-08-04T08:04:08.944Z,2.55
2022-08-04T08:06:42.686Z,2.83
2022-08-04T08:09:16.576Z,2.67
2022-08-04T08:12:38.286Z,2.95
2022-08-04T08:14:35.235Z,3.08
2022-08-04T08:17:03.420Z,3.00
2022-08-04T08:19:32.249Z,3.88
2022-08-04T08:22:01.589Z,3.30
2022-08-04T08:24:34.970Z,2.65
2022-08-04T08:27:04.625Z,2.97
2022-08-04T08:29:36.501Z,3.40
2022-08-04T08:32:08.620Z,2.53
2022-08-04T08:34:37.746Z,2.47
2022-08-04T08:37:30.876Z,3.85
2022-08-04T08:40:04.945Z,3.47
2022-08-04T08:42:41.095Z,2.45
2022-08-04T08:45:47.332Z,2.85
2022-08-04T08:48:36.322Z,2.58
2022-08-04T08:51:17.004Z,2.15
2022-08-04T08:54:14.850Z,2.70
2022-08-04T08:56:51.750Z,3.03
2022-08-04T08:59:46.864Z,3.05
2022-08-04T09:02:33.812Z,2.35
2022-08-04T09:08:09.471Z,3.00
2022-08-04T09:10:47.864Z,3.00
2022-08-04T09:13:26.722Z,2.30
2022-08-04T09:15:56.813Z,2.95
2022-08-04T09:18:47.033Z,2.75
2022-08-04T09:21:28.163Z,2.22
2022-08-04T09:24:35.685Z,2.97
2022-08-04T09:27:16.793Z,3.80
2022-08-04T09:30:03.743Z,2.88
2022-08-04T09:32:47.215Z,2.42
2022-08-04T09:35:26.487Z,2.47
2022-08-04T09:38:05.838Z,2.90
2022-08-04T09:40:53.345Z,2.45
2022-08-04T09:44:42.342Z,3.20
2022-08-04T09:46:52.228Z,2.65
2022-08-04T09:49:40.085Z,2.15
2022-08-04T09:52:24.022Z,2.00
2022-08-04T09:55:10.404Z,2.85
2022-08-04T09:58:00.808Z,2.40
2022-08-04T10:00:40.869Z,2.38
2022-08-04T10:03:19.907Z,2.30
2022-08-04T10:06:03.011Z,1.98
2022-08-04T10:08:57.112Z,2.60
2022-08-04T10:11:56.490Z,2.15
2022-08-04T10:14:56.342Z,2.03
2022-08-04T10:17:49.127Z,1.92
2022-08-04T10:20:52.747Z,2.22
2022-08-04T10:23:56.396Z,2.60
2022-08-04T10:26:56.903Z,3.33
2022-08-04T10:29:44.841Z,1.42
2022-08-04T10:32:25.173Z,3.20
2022-08-04T10:35:16.139Z,2.03
2022-08-04T10:38:09.010Z,2.28
2022-08-04T10:41:04.036Z,2.35
2022-08-04T10:43:50.747Z,3.17
2022-08-04T10:49:17.863Z,2.47
2022-08-04T10:52:07.120Z,1.60
2022-08-04T10:55:11.198Z,1.67
2022-08-04T10:57:41.993Z,2.05
2022-08-04T11:00:16.517Z,1.55
2022-08-04T11:03:05.383Z,2.10
2022-08-04T11:05:53.031Z,1.67
2022-08-04T11:08:52.127Z,1.60
2022-08-04T11:12:00.615Z,2.03
2022-08-04T11:14:40.371Z,2.15
2022-08-04T11:17:15.691Z,1.80
2022-08-04T11:19:54.558Z,2.10
2022-08-04T11:22:28.834Z,2.13
2022-08-04T11:25:06.766Z,2.08
2022-08-04T11:28:03.352Z,1.60
2022-08-04T11:30:53.445Z,1.67
2022-08-04T11:33:31.484Z,2.30
2022-08-04T11:36:24.444Z,1.92
2022-08-04T11:39:14.131Z,1.60
2022-08-04T11:41:47.806Z,1.35
2022-08-04T11:45:10.784Z,1.70
2022-08-04T11:47:47.693Z,1.38
2022-08-04T11:50:22.344Z,2.00
2022-08-04T11:52:53.927Z,1.83
2022-08-04T11:55:23.034Z,1.52
2022-08-04T11:57:54.260Z,1.70
2022-08-04T12:00:23.333Z,1.77
2022-08-04T12:03:02.681Z,1.90
2022-08-04T12:05:37.482Z,1.65
2022-08-04T12:08:23.730Z,1.70
2022-08-04T12:11:16.207Z,2.37
2022-08-04T12:14:01.839Z,1.35
2022-08-04T12:16:38.809Z,1.83
2022-08-04T12:19:18.455Z,1.83
2022-08-04T12:21:55.686Z,1.58
2022-08-04T12:24:33.559Z,1.90
2022-08-04T12:27:11.010Z,1.48
2022-08-04T12:29:41.428Z,1.50
2022-08-04T12:32:21.301Z,1.75
2022-08-04T12:34:55.120Z,1.83
2022-08-04T12:37:48.376Z,1.35
2022-08-04T12:40:30.011Z,1.30
2022-08-04T12:43:00.975Z,1.65
2022-08-04T12:45:29.919Z,1.23
2022-08-04T12:48:02.427Z,1.40
2022-08-04T12:50:32.123Z,1.20
2022-08-04T12:53:02.191Z,1.40
2022-08-04T12:55:38.036Z,1.13
2022-08-04T12:58:42.674Z,1.25
2022-08-04T13:02:10.270Z,1.02
2022-08-04T13:04:04.016Z,1.45
2022-08-04T13:06:36.475Z,1.58
2022-08-04T13:09:17.522Z,1.20
2022-08-04T13:11:54.100Z,1.65
2022-08-04T13:14:27.909Z,1.52
2022-08-04T13:17:01.306Z,0.98
2022-08-04T13:19:31.229Z,1.40
2022-08-04T13:22:08.956Z,1.30
2022-08-04T13:25:18.281Z,1.02
2022-08-04T13:30:23.082Z,1.30
2022-08-04T13:30:24.443Z,1.10
2022-08-04T13:33:01.096Z,1.60
2022-08-04T13:35:55.805Z,1.17
2022-08-04T13:38:21.072Z,2.10
2022-08-04T13:40:49.271Z,2.15
2022-08-04T13:44:15.841Z,1.80
2022-08-04T13:46:27.028Z,1.30
2022-08-04T13:49:27.965Z,1.52
2022-08-04T13:51:58.319Z,1.35
2022-08-04T13:54:47.211Z,1.40
2022-08-04T13:57:32.828Z,1.10
2022-08-04T14:00:05.517Z,1.27
2022-08-04T14:02:46.139Z,1.75
2022-08-04T14:05:28.554Z,1.40
2022-08-04T14:08:08.501Z,1.27
2022-08-04T14:10:37.033Z,1.67
2022-08-04T14:13:06.309Z,1.50
2022-08-04T14:16:02.873Z,1.58
2022-08-04T14:18:32.357Z,1.75
2022-08-04T14:21:11.410Z,1.42
2022-08-04T14:23:47.458Z,2.13
2022-08-04T14:26:16.109Z,2.20
2022-08-04T14:29:08.589Z,1.88
2022-08-04T14:31:31.395Z,1.60
2022-08-04T14:34:04.583Z,1.38
2022-08-04T14:37:13.242Z,1.75
2022-08-04T14:40:17.997Z,1.70
2022-08-04T14:42:55.238Z,1.52
2022-08-04T14:45:33.750Z,1.77
2022-08-04T14:48:02.768Z,1.67
2022-08-04T14:50:45.129Z,1.73
2022-08-04T14:53:20.919Z,1.20
2022-08-04T14:55:56.539Z,1.23
2022-08-04T14:58:33.042Z,1.40
2022-08-04T15:01:10.264Z,2.20
2022-08-04T15:03:50.766Z,1.48
2022-08-04T15:06:26.305Z,1.52
2022-08-04T15:08:56.867Z,1.20
2022-08-04T15:11:25.096Z,1.50
2022-08-04T15:13:54.185Z,1.00
2022-08-04T15:16:22.683Z,1.80
2022-08-04T15:18:54.483Z,1.17
2022-08-04T15:21:23.867Z,1.73
2022-08-04T15:23:51.349Z,1.60
2022-08-04T15:26:33.792Z,1.08
2022-08-04T15:29:26.781Z,0.82
2022-08-04T15:32:07.570Z,0.90
2022-08-04T15:34:51.349Z,1.30
2022-08-04T15:37:24.040Z,1.10
2022-08-04T15:40:01.002Z,1.20
2022-08-04T15:42:58.348Z,1.30
2022-08-04T15:46:02.522Z,1.27
2022-08-04T15:48:13.663Z,1.38
2022-08-04T15:50:56.316Z,1.13
2022-08-04T15:54:01.210Z,0.85
2022-08-04T15:56:26.411Z,2.42
2022-08-04T15:58:55.333Z,1.10
2022-08-04T16:01:23.263Z,1.17
2022-08-04T16:03:58.390Z,1.25
2022-08-04T16:06:29.845Z,0.93
2022-08-04T16:09:00.434Z,1.10
2022-08-04T16:11:32.901Z,1.50
2022-08-04T16:14:03.512Z,1.60
2022-08-04T16:16:40.013Z,1.35
2022-08-04T16:19:10.099Z,1.38
2022-08-04T16:21:55.085Z,1.58
2022-08-04T16:24:39.257Z,1.42
2022-08-04T16:27:11.591Z,2.45
2022-08-04T16:29:42.884Z,1.67
2022-08-04T16:32:14.679Z,1.30
2022-08-04T16:35:04.194Z,1.77
2022-08-04T16:37:37.955Z,1.30
2022-08-04T16:40:44.493Z,1.48
2022-08-04T16:43:17.753Z,1.33
2022-08-04T16:46:03.697Z,1.00
2022-08-04T16:48:35.783Z,1.58
2022-08-04T16:51:06.808Z,1.45
2022-08-04T16:53:57.770Z,0.82
2022-08-04T16:56:33.085Z,1.38
2022-08-04T16:59:12.633Z,1.48
2022-08-04T17:01:47.807Z,1.30
2022-08-04T17:04:15.723Z,1.27
2022-08-04T17:06:46.522Z,1.65
2022-08-04T17:09:18.571Z,1.67
2022-08-04T17:11:48.206Z,1.58
2022-08-04T17:14:26.517Z,1.42
2022-08-04T17:16:57.213Z,1.40
2022-08-04T17:19:26.583Z,1.23
2022-08-04T17:22:06.723Z,1.75
2022-08-04T17:24:36.491Z,1.98
2022-08-04T17:28:19.303Z,1.30
2022-08-04T17:29:52.034Z,1.30
2022-08-04T17:32:22.107Z,1.30
2022-08-04T17:34:52.141Z,1.45
2022-08-04T17:37:40.805Z,1.70
2022-08-04T17:40:22.436Z,1.60
2022-08-04T17:44:03.392Z,1.80
2022-08-04T17:46:29.451Z,1.70
2022-08-04T17:48:58.691Z,1.40
2022-08-04T17:52:05.434Z,1.58
2022-08-04T17:54:36.723Z,1.73
2022-08-04T17:57:15.396Z,2.13
2022-08-04T17:59:52.146Z,1.25
2022-08-04T18:02:32.266Z,1.05
2022-08-04T18:08:40.412Z,1.10
2022-08-04T18:19:11.666Z,1.00
2022-08-04T18:21:46.593Z,1.15
2022-08-04T18:27:19.531Z,1.30
2022-08-04T18:30:14.979Z,1.55
2022-08-04T18:32:34.812Z,1.40
2022-08-04T18:35:05.379Z,1.30
2022-08-04T18:38:05.397Z,1.40
2022-08-04T18:40:34.270Z,1.70
2022-08-04T18:43:14.098Z,1.25
2022-08-04T18:45:42.198Z,1.90
2022-08-04T18:48:18.878Z,1.40
2022-08-04T18:51:11.117Z,1.35
2022-08-04T18:53:34.996Z,2.03
2022-08-04T18:56:06.340Z,1.42
2022-08-04T18:58:48.477Z,1.38
2022-08-04T19:01:15.962Z,1.50
2022-08-04T19:03:44.088Z,1.65
2022-08-04T19:06:13.961Z,1.00
2022-08-04T19:08:44.992Z,1.27
2022-08-04T19:14:02.918Z,1.48
2022-08-04T19:16:33.073Z,1.50
2022-08-04T19:19:05.654Z,1.35
2022-08-04T19:22:00.835Z,1.00
2022-08-04T19:24:32.821Z,1.35
2022-08-04T19:27:06.465Z,1.33
2022-08-04T19:29:37.588Z,1.10
2022-08-04T19:32:14.000Z,1.60
2022-08-04T19:37:57.231Z,1.70
2022-08-04T19:40:33.737Z,1.13
2022-08-04T19:43:14.464Z,1.40
2022-08-04T19:45:45.017Z,1.10
2022-08-04T19:48:39.810Z,1.13
2022-08-04T19:51:37.573Z,1.25
2022-08-04T19:54:51.342Z,1.42
2022-08-04T19:57:35.363Z,1.67
2022-08-04T20:00:04.770Z,1.40
2022-08-04T20:02:32.641Z,1.20
2022-08-04T20:05:02.917Z,1.20
2022-08-04T20:07:36.233Z,1.50
2022-08-04T20:10:07.667Z,1.35
2022-08-04T20:12:42.138Z,1.35
2022-08-04T20:15:12.505Z,2.08
2022-08-04T20:18:07.547Z,1.98
2022-08-04T20:20:31.224Z,1.80
2022-08-04T20:22:59.135Z,1.15
2022-08-04T20:25:36.436Z,1.33
2022-08-04T20:28:05.782Z,1.10
2022-08-04T20:30:33.629Z,1.58
2022-08-04T20:33:01.411Z,1.48
2022-08-04T20:35:32.635Z,1.83
2022-08-04T20:38:33.482Z,1.40
2022-08-04T20:41:02.337Z,1.48
2022-08-04T20:43:31.395Z,1.45
2022-08-04T20:45:59.241Z,1.75
2022-08-04T20:48:33.586Z,1.52
2022-08-04T20:51:01.454Z,1.52
2022-08-04T20:53:46.503Z,1.52
2022-08-04T20:56:19.315Z,2.05
2022-08-04T20:58:57.871Z,2.33
2022-08-04T21:01:27.165Z,2.00
2022-08-04T21:04:28.424Z,1.40
2022-08-04T21:07:01.412Z,1.90
2022-08-04T21:09:37.859Z,2.28
2022-08-04T21:12:26.829Z,1.50
2022-08-04T21:14:57.999Z,1.20
2022-08-04T21:17:59.074Z,1.10
2022-08-04T21:20:13.951Z,1.20
2022-08-04T21:22:41.470Z,1.35
2022-08-04T21:25:15.857Z,1.10
2022-08-04T21:27:44.325Z,1.20
2022-08-04T21:30:25.108Z,1.30
2022-08-04T21:32:55.080Z,1.20
2022-08-04T21:35:37.073Z,1.10
2022-08-04T21:38:17.426Z,1.10
2022-08-04T21:40:53.493Z,1.35
2022-08-04T21:43:27.380Z,0.82
2022-08-04T21:45:56.941Z,1.15
2022-08-04T21:48:32.209Z,1.00
2022-08-04T21:51:13.589Z,1.55
2022-08-04T21:54:01.364Z,1.23
2022-08-04T21:56:29.180Z,0.88
2022-08-04T21:58:58.023Z,1.25
2022-08-04T22:01:51.924Z,1.30
2022-08-04T22:04:14.010Z,1.10
2022-08-04T22:06:42.095Z,1.00
2022-08-04T22:09:15.104Z,1.40
2022-08-04T22:11:48.802Z,1.10
2022-08-04T22:14:27.177Z,1.02
2022-08-04T22:16:56.584Z,1.48
2022-08-04T22:19:30.307Z,1.58
2022-08-04T22:22:13.609Z,1.00
2022-08-04T22:24:52.313Z,1.27
2022-08-04T22:27:38.008Z,1.30
2022-08-04T22:30:10.528Z,1.10
2022-08-04T22:32:48.682Z,1.88
2022-08-04T22:35:43.408Z,1.30
2022-08-04T22:38:25.337Z,1.35
2022-08-04T22:41:01.235Z,2.08
2022-08-04T22:43:33.720Z,1.48
2022-08-04T22:46:07.854Z,1.10
2022-08-04T22:48:37.203Z,0.98
2022-08-04T22:51:07.029Z,1.17
2022-08-04T22:53:35.453Z,1.05
2022-08-04T22:56:09.988Z,0.90
2022-08-04T22:58:45.654Z,0.73
2022-08-04T23:01:17.764Z,1.45
2022-08-04T23:03:55.137Z,0.95
2022-08-04T23:06:28.369Z,1.10
2022-08-04T23:08:57.392Z,1.23
2022-08-04T23:11:24.804Z,1.00
2022-08-04T23:14:02.953Z,1.55
2022-08-04T23:16:32.413Z,1.30
2022-08-04T23:19:00.137Z,1.30
2022-08-04T23:21:40.941Z,1.30
2022-08-04T23:24:15.004Z,1.40
2022-08-04T23:26:42.466Z,1.50
2022-08-04T23:29:09.799Z,1.55
2022-08-04T23:31:41.674Z,1.50
2022-08-04T23:34:24.386Z,1.73
2022-08-04T23:36:51.727Z,1.20
2022-08-04T23:39:19.137Z,1.00
2022-08-04T23:41:55.359Z,1.10
2022-08-04T23:44:26.819Z,1.40
2022-08-04T23:47:02.155Z,1.10
2022-08-04T23:49:42.280Z,1.40
2022-08-04T23:52:27.753Z,1.40
2022-08-04T23:55:00.320Z,1.33
2022-08-04T23:57:31.345Z,1.83
